Time;durP1;ratioP1;P1;durP2;ratioP2;P2;SDS_P1;SDS_P2;PMS_P1;PMS_P2;Temp;Humidity;BMP_temperature;BMP_pressure;BME280_temperature;BME280_humidity;BME280_pressure;Samples;Min_cycle;Max_cycle;Signal;HPM_P1;HPM_P2
2021/12/18 00:02:22;;;;;;;;;;;6.50;99.90;;;;;;5076857;28;19923;-84
2021/12/18 00:04:47;;;;;;;;;;;6.50;99.90;;;;;;5081394;28;19916;-84
2021/12/18 00:07:13;;;;;;;;;;;6.60;99.90;;;;;;5096159;28;19920;-85
2021/12/18 00:09:40;;;;;;;;;;;6.40;99.90;;;;;;5077563;28;19920;-85
2021/12/18 00:12:06;;;;;;;;;;;6.40;99.90;;;;;;5072497;28;19917;-85
2021/12/18 00:14:32;;;;;;;;;;;6.40;99.90;;;;;;5081884;28;20143;-84
2021/12/18 00:16:57;;;;;;;;;;;6.40;99.90;;;;;;5090992;28;19945;-86
2021/12/18 00:19:26;;;;;;;;;;;6.40;99.90;;;;;;5075222;28;20396;-84
2021/12/18 00:21:52;;;;;;;;;;;7.10;99.90;;;;;;5080581;28;20377;-84
2021/12/18 00:24:19;;;;;;;;;;;6.40;99.90;;;;;;5073326;28;19927;-84
2021/12/18 00:26:44;;;;;;;;;;;6.40;99.90;;;;;;5084891;28;19916;-84
2021/12/18 00:29:10;;;;;;;;;;;6.40;99.90;;;;;;5091289;28;19926;-86
2021/12/18 00:31:36;;;;;;;;;;;6.40;99.90;;;;;;5088259;28;19924;-84
2021/12/18 00:34:01;;;;;;;;;;;6.40;99.90;;;;;;5085368;28;19923;-84
2021/12/18 00:36:27;;;;;;;;;;;6.40;99.90;;;;;;5089587;28;20380;-84
2021/12/18 00:38:52;;;;;;;;;;;6.30;99.90;;;;;;5085780;28;19920;-85
2021/12/18 00:44:02;;;;;;;;;;;6.80;99.90;;;;;;5089646;28;19920;-85
2021/12/18 00:46:30;;;;;;;;;;;6.40;99.90;;;;;;5093462;28;20376;-84
2021/12/18 00:48:55;;;;;;;;;;;6.30;99.90;;;;;;5092193;28;20372;-85
2021/12/18 00:51:21;;;;;;;;;;;6.40;99.90;;;;;;5092472;28;19920;-85
2021/12/18 00:53:47;;;;;;;;;;;6.30;99.90;;;;;;5087130;28;19917;-83
2021/12/18 00:56:12;;;;;;;;;;;6.30;99.90;;;;;;5083820;28;20014;-83
2021/12/18 00:58:38;;;;;;;;;;;6.30;99.90;;;;;;5086223;28;19923;-83
2021/12/18 01:01:08;;;;;;;;;;;6.20;99.90;;;;;;5087351;28;20318;-83
2021/12/18 01:03:35;;;;;;;;;;;6.20;99.90;;;;;;5073619;28;19920;-84
2021/12/18 01:06:00;;;;;;;;;;;6.20;99.90;;;;;;5084647;28;19963;-82
2021/12/18 01:08:26;;;;;;;;;;;6.20;99.90;;;;;;5075098;28;19959;-81
2021/12/18 01:13:47;;;;;;;;;;;6.10;99.90;;;;;;5082953;28;19916;-83
2021/12/18 01:16:19;;;;;;;;;;;6.10;99.90;;;;;;5080529;28;19924;-83
2021/12/18 01:24:13;;;;;;;;;;;6.10;99.90;;;;;;5092654;28;19950;-83
2021/12/18 01:26:39;;;;;;;;;;;6.10;99.90;;;;;;5080849;28;19920;-83
2021/12/18 01:29:05;;;;;;;;;;;6.10;99.90;;;;;;5079104;28;20376;-84
2021/12/18 01:31:30;;;;;;;;;;;6.10;99.90;;;;;;5087653;28;19920;-84
2021/12/18 01:33:56;;;;;;;;;;;6.20;99.90;;;;;;5079763;28;19920;-85
2021/12/18 01:36:22;;;;;;;;;;;6.10;99.90;;;;;;5082379;28;19928;-84
2021/12/18 01:38:48;;;;;;;;;;;6.10;99.90;;;;;;5057316;28;20490;-84
2021/12/18 01:41:15;;;;;;;;;;;6.10;99.90;;;;;;5086620;28;20003;-84
2021/12/18 01:46:44;;;;;;;;;;;6.10;99.90;;;;;;5082008;28;19917;-84
2021/12/18 01:54:38;;;;;;;;;;;6.10;99.90;;;;;;5067991;28;19922;-85
2021/12/18 01:57:04;;;;;;;;;;;6.10;99.90;;;;;;5073244;28;20011;-85
2021/12/18 01:59:45;;;;;;;;;;;6.10;99.90;;;;;;5087894;28;20353;-83
2021/12/18 02:02:11;;;;;;;;;;;6.10;99.90;;;;;;5082203;28;20341;-84
2021/12/18 02:04:37;;;;;;;;;;;6.20;99.90;;;;;;5092000;28;19955;-82
2021/12/18 02:07:03;;;;;;;;;;;6.10;99.90;;;;;;5083648;28;19927;-84
2021/12/18 02:09:45;;;;;;;;;;;6.20;99.90;;;;;;5067952;28;20357;-84
2021/12/18 02:12:13;;;;;;;;;;;6.20;99.90;;;;;;5099289;28;20334;-85
2021/12/18 02:22:49;;;;;;;;;;;6.20;99.90;;;;;;5087920;28;19916;-84
2021/12/18 02:25:23;;;;;;;;;;;6.20;99.90;;;;;;5056241;28;19928;-85
2021/12/18 02:27:49;;;;;;;;;;;6.20;99.90;;;;;;5084124;28;19970;-84
2021/12/18 02:30:16;;;;;;;;;;;6.20;99.90;;;;;;5084063;28;20097;-83
2021/12/18 02:32:41;;;;;;;;;;;6.10;99.90;;;;;;5078578;28;19923;-85
2021/12/18 02:35:09;;;;;;;;;;;6.70;99.90;;;;;;5078860;28;19920;-87
2021/12/18 02:37:40;;;;;;;;;;;6.10;99.90;;;;;;5084610;28;19930;-84
2021/12/18 02:42:34;;;;;;;;;;;6.20;99.90;;;;;;5095494;28;19984;-86
2021/12/18 02:45:06;;;;;;;;;;;6.50;99.90;;;;;;5098950;28;19920;-85
2021/12/18 02:47:31;;;;;;;;;;;6.20;99.90;;;;;;5094242;28;19919;-84
2021/12/18 02:49:57;;;;;;;;;;;6.20;99.90;;;;;;5094432;28;19973;-84
2021/12/18 02:52:27;;;;;;;;;;;6.20;99.90;;;;;;5082888;28;19924;-81
2021/12/18 02:54:53;;;;;;;;;;;6.20;99.90;;;;;;5097393;28;19924;-83
2021/12/18 02:57:19;;;;;;;;;;;6.20;99.90;;;;;;5095510;28;19955;-83
2021/12/18 02:59:56;;;;;;;;;;;6.20;99.90;;;;;;5101138;28;19916;-83
2021/12/18 03:02:22;;;;;;;;;;;6.20;99.90;;;;;;5086857;28;19916;-86
2021/12/18 03:04:54;;;;;;;;;;;6.20;99.90;;;;;;5093622;28;19916;-83
2021/12/18 03:07:22;;;;;;;;;;;6.20;99.90;;;;;;5081370;28;19959;-83
2021/12/18 03:23:26;;;;;;;;;;;6.20;99.90;;;;;;5083411;28;20286;-85
2021/12/18 03:25:56;;;;;;;;;;;6.20;99.90;;;;;;5082081;28;20365;-85
2021/12/18 03:28:22;;;;;;;;;;;6.30;99.90;;;;;;5084594;28;19916;-85
2021/12/18 03:30:47;;;;;;;;;;;6.30;99.90;;;;;;5091070;28;20400;-84
2021/12/18 03:33:13;;;;;;;;;;;6.40;99.90;;;;;;5079262;28;19931;-84
2021/12/18 03:35:38;;;;;;;;;;;6.30;99.90;;;;;;5111972;28;19927;-84
2021/12/18 03:38:04;;;;;;;;;;;6.30;99.90;;;;;;5092306;28;19971;-83
2021/12/18 03:40:30;;;;;;;;;;;6.30;99.90;;;;;;5078625;28;19999;-85
2021/12/18 03:42:55;;;;;;;;;;;6.40;99.90;;;;;;5084994;28;19916;-85
2021/12/18 03:45:22;;;;;;;;;;;6.40;99.90;;;;;;5095981;28;19920;-84
2021/12/18 03:47:48;;;;;;;;;;;6.40;99.90;;;;;;5095014;28;19916;-84
2021/12/18 03:50:13;;;;;;;;;;;6.40;99.90;;;;;;5079872;28;19924;-83
2021/12/18 03:52:39;;;;;;;;;;;6.40;99.90;;;;;;5085702;28;19916;-84
2021/12/18 03:55:05;;;;;;;;;;;6.40;99.90;;;;;;5088411;28;19941;-83
2021/12/18 03:57:31;;;;;;;;;;;6.40;99.90;;;;;;5070560;28;19981;-84
2021/12/18 03:59:56;;;;;;;;;;;6.40;99.90;;;;;;5073792;28;19917;-83
2021/12/18 04:02:22;;;;;;;;;;;6.40;99.90;;;;;;5073862;28;20278;-85
2021/12/18 04:04:47;;;;;;;;;;;6.40;99.90;;;;;;5064999;28;19916;-84
2021/12/18 04:07:14;;;;;;;;;;;6.40;99.90;;;;;;5083617;28;19927;-85
2021/12/18 04:09:40;;;;;;;;;;;6.40;99.90;;;;;;5095039;28;20025;-85
2021/12/18 04:12:06;;;;;;;;;;;6.50;99.90;;;;;;5091851;28;19955;-85
2021/12/18 04:14:31;;;;;;;;;;;6.50;99.90;;;;;;5087124;28;19928;-85
2021/12/18 04:16:57;;;;;;;;;;;6.50;99.90;;;;;;5066854;28;19962;-85
2021/12/18 04:19:23;;;;;;;;;;;6.50;99.90;;;;;;5081055;28;19934;-85
2021/12/18 04:21:48;;;;;;;;;;;6.50;99.90;;;;;;5077012;28;20384;-83
2021/12/18 04:24:14;;;;;;;;;;;6.50;99.90;;;;;;5076643;28;19915;-83
2021/12/18 04:26:39;;;;;;;;;;;6.60;99.90;;;;;;5089249;28;19916;-85
2021/12/18 04:29:08;;;;;;;;;;;6.60;99.90;;;;;;5080564;28;19927;-83
2021/12/18 04:31:35;;;;;;;;;;;6.60;99.90;;;;;;5093615;28;20368;-83
2021/12/18 04:34:01;;;;;;;;;;;6.70;99.90;;;;;;5065290;28;20029;-82
2021/12/18 04:36:27;;;;;;;;;;;6.60;99.90;;;;;;5093394;28;19969;-83
2021/12/18 04:38:52;;;;;;;;;;;6.70;99.90;;;;;;5091698;28;19919;-83
2021/12/18 04:41:23;;;;;;;;;;;6.70;99.90;;;;;;5073337;28;19917;-85
2021/12/18 04:43:49;;;;;;;;;;;6.70;99.90;;;;;;5079271;28;19923;-82
2021/12/18 04:46:15;;;;;;;;;;;6.70;99.90;;;;;;5064200;28;20438;-84
2021/12/18 04:48:40;;;;;;;;;;;7.30;99.90;;;;;;5069970;28;20319;-86
2021/12/18 04:51:06;;;;;;;;;;;6.70;99.90;;;;;;5081737;28;19924;-85
2021/12/18 04:53:32;;;;;;;;;;;6.70;99.90;;;;;;5078884;28;20269;-85
2021/12/18 04:55:57;;;;;;;;;;;6.70;99.90;;;;;;5082130;28;20006;-85
2021/12/18 04:58:23;;;;;;;;;;;6.70;99.90;;;;;;5090807;28;20385;-86
2021/12/18 05:00:49;;;;;;;;;;;6.90;99.90;;;;;;5075782;28;19916;-86
2021/12/18 05:03:17;;;;;;;;;;;6.70;99.90;;;;;;5096263;28;19916;-84
2021/12/18 05:05:42;;;;;;;;;;;6.80;99.90;;;;;;5076898;28;20314;-83
2021/12/18 05:08:08;;;;;;;;;;;6.80;99.90;;;;;;5090046;28;19931;-84
2021/12/18 05:10:34;;;;;;;;;;;6.80;99.90;;;;;;5059507;28;20288;-84
2021/12/18 05:12:59;;;;;;;;;;;6.90;99.90;;;;;;5073364;28;19926;-85
2021/12/18 05:15:25;;;;;;;;;;;6.90;99.90;;;;;;5075915;28;19916;-87
2021/12/18 05:17:51;;;;;;;;;;;6.90;99.90;;;;;;5077993;28;20011;-84
2021/12/18 05:20:17;;;;;;;;;;;6.90;99.90;;;;;;5093832;28;20373;-83
2021/12/18 05:22:42;;;;;;;;;;;6.90;99.90;;;;;;5084898;28;20035;-85
2021/12/18 05:25:08;;;;;;;;;;;7.00;99.90;;;;;;5080286;28;19916;-82
2021/12/18 05:27:34;;;;;;;;;;;7.00;99.90;;;;;;5086146;28;19970;-86
2021/12/18 05:29:59;;;;;;;;;;;7.00;99.90;;;;;;5083207;28;19924;-86
2021/12/18 05:32:25;;;;;;;;;;;7.00;99.90;;;;;;5082597;28;19965;-83
2021/12/18 05:34:50;;;;;;;;;;;7.70;99.90;;;;;;5083936;28;19916;-84
2021/12/18 05:39:51;;;;;;;;;;;7.10;99.90;;;;;;5079407;28;20372;-84
2021/12/18 05:42:17;;;;;;;;;;;7.10;99.90;;;;;;5086371;28;19920;-83
2021/12/18 05:44:43;;;;;;;;;;;7.10;99.90;;;;;;5091221;28;19916;-85
2021/12/18 05:47:08;;;;;;;;;;;7.10;99.90;;;;;;5077112;28;19923;-83
2021/12/18 05:49:34;;;;;;;;;;;7.10;99.90;;;;;;5092307;28;19970;-85
2021/12/18 05:52:00;;;;;;;;;;;7.20;99.90;;;;;;5092241;28;19924;-84
2021/12/18 05:54:25;;;;;;;;;;;7.20;99.90;;;;;;5088497;28;19916;-84
2021/12/18 05:56:51;;;;;;;;;;;7.20;99.90;;;;;;5065010;28;19919;-83
2021/12/18 05:59:17;;;;;;;;;;;7.20;99.90;;;;;;5091784;28;19923;-85
2021/12/18 06:01:43;;;;;;;;;;;7.20;99.90;;;;;;5067241;28;19963;-84
2021/12/18 06:04:08;;;;;;;;;;;7.30;99.90;;;;;;5064656;28;19916;-83
2021/12/18 06:06:34;;;;;;;;;;;7.30;99.90;;;;;;5075896;28;20305;-84
2021/12/18 06:08:59;;;;;;;;;;;7.30;99.90;;;;;;5080536;28;19959;-83
2021/12/18 06:11:27;;;;;;;;;;;7.30;99.90;;;;;;5081756;28;19970;-84
2021/12/18 06:13:53;;;;;;;;;;;7.30;99.90;;;;;;5080685;28;20002;-83
2021/12/18 06:16:19;;;;;;;;;;;7.40;99.90;;;;;;5058472;28;20007;-83
2021/12/18 06:18:47;;;;;;;;;;;7.40;99.90;;;;;;5091825;28;20051;-83
2021/12/18 06:21:14;;;;;;;;;;;7.40;99.90;;;;;;5086429;28;19921;-83
2021/12/18 06:23:40;;;;;;;;;;;7.40;99.90;;;;;;5079920;28;19923;-83
2021/12/18 06:26:05;;;;;;;;;;;7.40;99.90;;;;;;5088962;28;19981;-84
2021/12/18 06:28:31;;;;;;;;;;;7.50;99.90;;;;;;5082506;28;19958;-82
2021/12/18 06:30:57;;;;;;;;;;;7.40;99.90;;;;;;5089588;28;20381;-83
2021/12/18 06:33:22;;;;;;;;;;;7.20;99.90;;;;;;5090568;28;20046;-83
2021/12/18 06:35:48;;;;;;;;;;;7.40;99.90;;;;;;5072954;28;19946;-83
2021/12/18 06:38:14;;;;;;;;;;;7.40;99.90;;;;;;5084083;28;19969;-85
2021/12/18 06:40:39;;;;;;;;;;;7.60;99.90;;;;;;5090398;28;19977;-84
2021/12/18 06:43:05;;;;;;;;;;;7.50;99.90;;;;;;5074614;28;19970;-84
2021/12/18 06:45:31;;;;;;;;;;;7.50;99.90;;;;;;5059946;28;20370;-84
2021/12/18 06:47:56;;;;;;;;;;;7.50;99.90;;;;;;5091306;28;19923;-83
2021/12/18 06:50:22;;;;;;;;;;;7.50;99.90;;;;;;5091325;28;19955;-82
2021/12/18 06:52:48;;;;;;;;;;;7.50;99.90;;;;;;5071406;28;19916;-81
2021/12/18 06:55:16;;;;;;;;;;;7.50;99.90;;;;;;5074539;28;19916;-83
2021/12/18 06:57:42;;;;;;;;;;;7.50;99.90;;;;;;5089861;28;19923;-85
2021/12/18 07:00:09;;;;;;;;;;;7.50;99.90;;;;;;5090612;28;19916;-84
2021/12/18 07:02:35;;;;;;;;;;;7.60;99.90;;;;;;5082863;28;19927;-84
2021/12/18 07:05:00;;;;;;;;;;;7.60;99.90;;;;;;5091114;28;19916;-82
2021/12/18 07:07:26;;;;;;;;;;;7.60;99.90;;;;;;5082935;28;19916;-83
2021/12/18 07:09:51;;;;;;;;;;;7.80;99.90;;;;;;5091274;28;19920;-85
2021/12/18 07:12:17;;;;;;;;;;;7.60;99.90;;;;;;5084685;28;20219;-82
2021/12/18 07:14:42;;;;;;;;;;;7.60;99.90;;;;;;5087876;28;19924;-85
2021/12/18 07:17:08;;;;;;;;;;;7.60;99.90;;;;;;5074632;28;19990;-83
2021/12/18 07:19:34;;;;;;;;;;;7.60;99.90;;;;;;5086771;28;20354;-83
2021/12/18 07:21:59;;;;;;;;;;;7.60;99.90;;;;;;5093685;28;20419;-84
2021/12/18 07:24:25;;;;;;;;;;;7.60;99.90;;;;;;5072757;28;19962;-85
2021/12/18 07:26:51;;;;;;;;;;;7.70;99.90;;;;;;5094056;28;19920;-85
2021/12/18 07:29:16;;;;;;;;;;;7.60;99.90;;;;;;5088236;28;19915;-84
2021/12/18 07:31:42;;;;;;;;;;;7.80;99.90;;;;;;5083395;28;19931;-80
2021/12/18 07:34:07;;;;;;;;;;;7.80;99.90;;;;;;5081203;28;19938;-87
2021/12/18 07:36:33;;;;;;;;;;;7.70;99.90;;;;;;5085270;28;19931;-83
2021/12/18 07:38:59;;;;;;;;;;;7.70;99.90;;;;;;5089769;28;19916;-86
2021/12/18 07:41:24;;;;;;;;;;;7.70;99.90;;;;;;5085153;28;19927;-85
2021/12/18 07:43:50;;;;;;;;;;;7.90;99.90;;;;;;5087727;28;19931;-85
2021/12/18 07:46:15;;;;;;;;;;;7.80;99.90;;;;;;5091564;28;19927;-84
2021/12/18 07:48:41;;;;;;;;;;;7.80;99.90;;;;;;5083835;28;19935;-84
2021/12/18 07:51:07;;;;;;;;;;;7.80;99.90;;;;;;5093002;28;20045;-83
2021/12/18 07:53:33;;;;;;;;;;;7.80;99.90;;;;;;5082367;28;19995;-83
2021/12/18 07:55:59;;;;;;;;;;;7.80;99.90;;;;;;5077368;28;19959;-84
2021/12/18 07:58:25;;;;;;;;;;;7.90;99.90;;;;;;5083483;28;20368;-81
2021/12/18 08:00:50;;;;;;;;;;;7.80;99.90;;;;;;5097109;28;19920;-83
2021/12/18 08:03:16;;;;;;;;;;;8.70;99.90;;;;;;5095060;28;20271;-85
2021/12/18 08:05:42;;;;;;;;;;;7.30;99.90;;;;;;5090934;28;20342;-80
2021/12/18 08:08:07;;;;;;;;;;;7.90;99.90;;;;;;5088903;28;19916;-85
2021/12/18 08:10:33;;;;;;;;;;;7.90;99.90;;;;;;5089947;28;20234;-83
2021/12/18 08:12:59;;;;;;;;;;;8.00;99.90;;;;;;5089237;28;19998;-84
2021/12/18 08:15:24;;;;;;;;;;;8.00;99.90;;;;;;5075553;28;20358;-84
2021/12/18 08:17:50;;;;;;;;;;;8.00;99.90;;;;;;5087466;28;19916;-85
2021/12/18 08:20:15;;;;;;;;;;;8.00;99.90;;;;;;5096429;28;19916;-80
2021/12/18 08:22:41;;;;;;;;;;;8.00;99.90;;;;;;5090205;28;19920;-83
2021/12/18 08:25:07;;;;;;;;;;;8.00;99.90;;;;;;5063869;28;20001;-85
2021/12/18 08:27:32;;;;;;;;;;;8.00;99.90;;;;;;5079935;28;19917;-86
2021/12/18 08:29:58;;;;;;;;;;;7.90;99.90;;;;;;5090249;28;19930;-81
2021/12/18 08:32:24;;;;;;;;;;;8.00;99.90;;;;;;5084669;28;19938;-83
2021/12/18 08:34:49;;;;;;;;;;;8.00;99.90;;;;;;5078588;28;19943;-84
2021/12/18 08:37:17;;;;;;;;;;;8.00;99.90;;;;;;5085687;28;19988;-83
2021/12/18 08:39:43;;;;;;;;;;;8.00;99.90;;;;;;5086254;28;19924;-81
2021/12/18 08:42:08;;;;;;;;;;;8.00;99.90;;;;;;5086764;28;19923;-83
2021/12/18 08:44:34;;;;;;;;;;;8.10;99.90;;;;;;5085691;28;19916;-85
2021/12/18 08:47:00;;;;;;;;;;;8.00;99.90;;;;;;5072961;28;19922;-82
2021/12/18 08:49:26;;;;;;;;;;;8.10;99.90;;;;;;5088585;28;19916;-82
2021/12/18 08:51:52;;;;;;;;;;;8.10;99.90;;;;;;5081574;28;19928;-85
2021/12/18 08:54:18;;;;;;;;;;;8.20;99.90;;;;;;5069975;28;19916;-84
2021/12/18 08:56:43;;;;;;;;;;;8.10;99.90;;;;;;5093729;28;19939;-86
2021/12/18 08:59:09;;;;;;;;;;;8.10;99.90;;;;;;5089725;28;19916;-84
2021/12/18 09:01:34;;;;;;;;;;;8.10;99.90;;;;;;5079329;28;19998;-85
2021/12/18 09:04:00;;;;;;;;;;;8.20;99.90;;;;;;5093718;28;19916;-88
2021/12/18 09:06:26;;;;;;;;;;;8.20;99.90;;;;;;5083153;28;19994;-86
2021/12/18 09:08:52;;;;;;;;;;;9.00;99.90;;;;;;5073141;28;19927;-84
2021/12/18 09:11:18;;;;;;;;;;;8.20;99.90;;;;;;5091028;28;19920;-84
2021/12/18 09:13:43;;;;;;;;;;;8.20;99.90;;;;;;5090090;28;20278;-84
2021/12/18 09:16:09;;;;;;;;;;;8.20;99.90;;;;;;5084290;28;19999;-85
2021/12/18 09:18:34;;;;;;;;;;;8.20;99.90;;;;;;5092636;28;20373;-84
2021/12/18 09:21:00;;;;;;;;;;;8.20;99.90;;;;;;5081850;28;19916;-83
2021/12/18 09:23:26;;;;;;;;;;;8.20;99.90;;;;;;5105719;28;19916;-83
2021/12/18 09:25:52;;;;;;;;;;;8.20;99.90;;;;;;5088877;28;19920;-84
2021/12/18 09:28:17;;;;;;;;;;;8.20;99.90;;;;;;5075217;28;19916;-81
2021/12/18 09:30:43;;;;;;;;;;;8.20;99.90;;;;;;5082019;28;19968;-82
2021/12/18 09:33:12;;;;;;;;;;;8.20;99.90;;;;;;5082152;28;19915;-81
2021/12/18 09:35:37;;;;;;;;;;;8.20;99.90;;;;;;5076911;28;20291;-81
2021/12/18 09:38:03;;;;;;;;;;;8.30;99.90;;;;;;5070178;28;19935;-81
2021/12/18 09:40:29;;;;;;;;;;;8.20;99.90;;;;;;5093478;28;19920;-81
2021/12/18 09:42:55;;;;;;;;;;;8.30;99.90;;;;;;5080325;28;19916;-81
2021/12/18 09:45:21;;;;;;;;;;;8.30;99.90;;;;;;5085775;28;20295;-82
2021/12/18 09:47:47;;;;;;;;;;;8.30;99.90;;;;;;5067396;28;19916;-82
2021/12/18 09:50:13;;;;;;;;;;;8.30;99.90;;;;;;5085652;28;19920;-82
2021/12/18 09:52:39;;;;;;;;;;;8.30;99.90;;;;;;5089935;28;19939;-82
2021/12/18 09:55:06;;;;;;;;;;;8.30;99.90;;;;;;5082293;28;20442;-80
2021/12/18 09:57:31;;;;;;;;;;;8.30;99.90;;;;;;5078739;28;19916;-80
2021/12/18 09:59:57;;;;;;;;;;;8.30;99.90;;;;;;5080137;28;19923;-81
2021/12/18 10:02:23;;;;;;;;;;;8.30;99.90;;;;;;5083588;28;19985;-81
2021/12/18 10:04:48;;;;;;;;;;;8.30;99.90;;;;;;5081828;28;20385;-81
2021/12/18 10:07:16;;;;;;;;;;;8.30;99.90;;;;;;5073672;28;19916;-81
2021/12/18 10:09:42;;;;;;;;;;;8.40;99.90;;;;;;5082608;28;19916;-82
2021/12/18 10:12:16;;;;;;;;;;;8.40;99.90;;;;;;5057845;28;19921;-80
2021/12/18 10:15:02;;;;;;;;;;;8.40;99.90;;;;;;5079576;28;19915;-81
2021/12/18 10:17:28;;;;;;;;;;;8.40;99.90;;;;;;5055606;28;20396;-80
2021/12/18 10:20:13;;;;;;;;;;;8.40;99.90;;;;;;5091299;28;19919;-81
2021/12/18 10:22:42;;;;;;;;;;;8.40;99.90;;;;;;5083556;28;19920;-82
2021/12/18 10:25:08;;;;;;;;;;;8.50;99.90;;;;;;5070905;28;20392;-82
2021/12/18 10:27:37;;;;;;;;;;;8.40;99.90;;;;;;5069414;28;19916;-81
2021/12/18 10:30:11;;;;;;;;;;;8.50;99.90;;;;;;5080344;28;20380;-82
2021/12/18 10:32:36;;;;;;;;;;;8.50;99.90;;;;;;5062191;28;19916;-82
2021/12/18 10:35:02;;;;;;;;;;;8.50;99.90;;;;;;5059175;28;20386;-82
2021/12/18 10:37:29;;;;;;;;;;;8.50;99.90;;;;;;5077048;28;19920;-82
2021/12/18 10:39:56;;;;;;;;;;;8.50;99.90;;;;;;5075869;28;19916;-80
2021/12/18 10:42:31;;;;;;;;;;;8.50;99.90;;;;;;5061264;28;19916;-81
2021/12/18 10:44:56;;;;;;;;;;;8.50;99.90;;;;;;5074055;28;19916;-82
2021/12/18 10:47:22;;;;;;;;;;;8.50;99.90;;;;;;5087182;28;19922;-81
2021/12/18 10:49:48;;;;;;;;;;;8.60;99.90;;;;;;5084676;28;20362;-82
2021/12/18 10:52:13;;;;;;;;;;;8.60;99.90;;;;;;5085431;28;19928;-81
2021/12/18 10:54:39;;;;;;;;;;;8.60;99.90;;;;;;5101979;28;19965;-80
2021/12/18 10:57:17;;;;;;;;;;;8.60;99.90;;;;;;5095256;28;19917;-80
2021/12/18 10:59:46;;;;;;;;;;;8.60;99.90;;;;;;5072198;28;19936;-80
2021/12/18 11:02:13;;;;;;;;;;;8.60;99.90;;;;;;5080810;28;19924;-81
2021/12/18 11:04:40;;;;;;;;;;;8.70;99.90;;;;;;5090525;28;20381;-82
2021/12/18 11:07:41;;;;;;;;;;;9.30;99.90;;;;;;5090828;28;19962;-80
2021/12/18 11:15:50;;;;;;;;;;;8.80;99.90;;;;;;5077406;28;19920;-82
2021/12/18 11:18:17;;;;;;;;;;;8.80;99.90;;;;;;5082816;28;20053;-81
2021/12/18 11:20:42;;;;;;;;;;;8.80;99.90;;;;;;5084075;28;19926;-82
2021/12/18 11:23:08;;;;;;;;;;;8.80;99.90;;;;;;5083903;28;20333;-81
2021/12/18 11:25:34;;;;;;;;;;;8.80;99.90;;;;;;5088558;28;19916;-81
2021/12/18 11:28:00;;;;;;;;;;;8.80;99.90;;;;;;5090914;28;20349;-81
2021/12/18 11:30:26;;;;;;;;;;;8.80;99.90;;;;;;5084621;28;19920;-81
2021/12/18 11:32:54;;;;;;;;;;;8.90;99.90;;;;;;5078183;28;19920;-81
2021/12/18 11:35:20;;;;;;;;;;;8.90;99.90;;;;;;5084873;28;19916;-82
2021/12/18 11:37:51;;;;;;;;;;;8.90;99.90;;;;;;5084647;28;19932;-82
2021/12/18 11:40:19;;;;;;;;;;;8.90;99.90;;;;;;5086440;28;20381;-80
2021/12/18 11:42:44;;;;;;;;;;;8.90;99.90;;;;;;5061126;28;19924;-80
2021/12/18 11:45:10;;;;;;;;;;;8.90;99.90;;;;;;5084683;28;19923;-83
2021/12/18 11:47:40;;;;;;;;;;;9.00;99.90;;;;;;5091650;28;19931;-81
2021/12/18 11:50:06;;;;;;;;;;;9.00;99.90;;;;;;5101597;28;20268;-79
2021/12/18 11:52:50;;;;;;;;;;;9.00;99.90;;;;;;5087555;28;19923;-82
2021/12/18 11:55:16;;;;;;;;;;;9.00;99.90;;;;;;5092191;28;19916;-81
2021/12/18 11:57:44;;;;;;;;;;;9.00;99.90;;;;;;5105563;28;19916;-83
2021/12/18 12:00:29;;;;;;;;;;;9.00;99.90;;;;;;5092178;28;19916;-80
2021/12/18 12:02:56;;;;;;;;;;;9.00;99.90;;;;;;5083546;28;19931;-82
2021/12/18 12:05:36;;;;;;;;;;;9.00;99.90;;;;;;5068656;28;19916;-82
2021/12/18 12:08:21;;;;;;;;;;;9.00;99.90;;;;;;5072464;28;19962;-81
2021/12/18 12:11:06;;;;;;;;;;;9.00;99.90;;;;;;5087101;28;19947;-82
2021/12/18 12:13:50;;;;;;;;;;;9.00;99.90;;;;;;5079142;28;20409;-79
2021/12/18 12:16:16;;;;;;;;;;;8.90;99.90;;;;;;5091023;28;20399;-82
2021/12/18 12:19:00;;;;;;;;;;;8.90;99.90;;;;;;5066736;28;19917;-83
2021/12/18 12:21:55;;;;;;;;;;;8.90;99.90;;;;;;5102198;28;19917;-83
2021/12/18 12:24:22;;;;;;;;;;;8.90;99.90;;;;;;5066762;28;19964;-84
2021/12/18 12:26:49;;;;;;;;;;;8.90;99.90;;;;;;5087793;28;19916;-82
2021/12/18 12:29:15;;;;;;;;;;;8.90;99.90;;;;;;5085775;28;19916;-83
2021/12/18 12:31:54;;;;;;;;;;;8.90;99.90;;;;;;5079608;28;19962;-82
2021/12/18 12:34:33;;;;;;;;;;;8.90;99.90;;;;;;5087818;28;19953;-82
2021/12/18 12:37:17;;;;;;;;;;;8.90;99.90;;;;;;5066829;28;19924;-83
2021/12/18 12:39:53;;;;;;;;;;;8.90;99.90;;;;;;5091855;28;20031;-84
2021/12/18 12:42:19;;;;;;;;;;;8.90;99.90;;;;;;5074529;28;20251;-82
2021/12/18 12:44:55;;;;;;;;;;;8.90;99.90;;;;;;5059236;28;19923;-85
2021/12/18 12:47:24;;;;;;;;;;;8.80;99.90;;;;;;5099308;28;19964;-81
2021/12/18 12:49:54;;;;;;;;;;;8.80;99.90;;;;;;5080497;28;19917;-82
2021/12/18 12:52:20;;;;;;;;;;;8.80;99.90;;;;;;5087624;28;20386;-82
2021/12/18 12:54:52;;;;;;;;;;;8.80;99.90;;;;;;5068689;28;19915;-82
2021/12/18 12:57:27;;;;;;;;;;;8.80;99.90;;;;;;5092561;28;19920;-83
2021/12/18 12:59:54;;;;;;;;;;;8.80;99.90;;;;;;5085185;28;19959;-84
2021/12/18 13:02:21;;;;;;;;;;;8.80;99.90;;;;;;5077082;28;19916;-85
2021/12/18 13:04:47;;;;;;;;;;;8.70;99.90;;;;;;5065958;28;20005;-84
2021/12/18 13:07:13;;;;;;;;;;;8.80;99.90;;;;;;5098649;28;20272;-82
2021/12/18 13:09:46;;;;;;;;;;;8.80;99.90;;;;;;5085533;28;19955;-82
2021/12/18 13:12:11;;;;;;;;;;;8.70;99.90;;;;;;5083851;28;19924;-84
2021/12/18 13:14:43;;;;;;;;;;;8.70;99.90;;;;;;5080810;28;19931;-84
2021/12/18 13:17:18;;;;;;;;;;;8.70;99.90;;;;;;5087109;28;19916;-82
2021/12/18 13:20:11;;;;;;;;;;;8.70;99.90;;;;;;5082342;28;19960;-85
2021/12/18 13:22:36;;;;;;;;;;;8.70;99.90;;;;;;5084592;28;19962;-84
2021/12/18 13:25:05;;;;;;;;;;;8.80;99.90;;;;;;5069111;28;19963;-84
2021/12/18 13:27:31;;;;;;;;;;;8.70;99.90;;;;;;5072937;28;19917;-81
2021/12/18 13:30:13;;;;;;;;;;;8.70;99.90;;;;;;5093189;28;19920;-81
2021/12/18 13:32:52;;;;;;;;;;;8.70;99.90;;;;;;5075271;28;19915;-83
2021/12/18 13:35:18;;;;;;;;;;;8.70;99.90;;;;;;5092529;28;20002;-85
2021/12/18 13:37:58;;;;;;;;;;;8.70;99.90;;;;;;5084051;28;19921;-81
2021/12/18 13:40:24;;;;;;;;;;;8.70;99.90;;;;;;5085416;28;19932;-84
2021/12/18 13:43:08;;;;;;;;;;;8.60;99.90;;;;;;5064924;28;19920;-84
2021/12/18 13:45:46;;;;;;;;;;;8.60;99.90;;;;;;5090924;28;19923;-83
2021/12/18 13:48:12;;;;;;;;;;;8.60;99.90;;;;;;5075618;28;20392;-83
2021/12/18 13:50:37;;;;;;;;;;;8.60;99.90;;;;;;5091371;28;19920;-82
2021/12/18 13:53:05;;;;;;;;;;;8.60;99.90;;;;;;5088727;28;19931;-81
2021/12/18 13:55:33;;;;;;;;;;;8.60;99.90;;;;;;5091243;28;19971;-85
2021/12/18 13:58:10;;;;;;;;;;;8.50;99.90;;;;;;5089367;28;19963;-82
2021/12/18 14:00:56;;;;;;;;;;;8.50;99.90;;;;;;5088329;28;19939;-81
2021/12/18 14:03:23;;;;;;;;;;;8.50;99.90;;;;;;5087434;28;19916;-82
2021/12/18 14:05:49;;;;;;;;;;;8.50;99.90;;;;;;5081698;28;19931;-81
2021/12/18 14:08:16;;;;;;;;;;;8.50;99.90;;;;;;5086645;28;19916;-82
2021/12/18 14:10:42;;;;;;;;;;;8.50;99.90;;;;;;5088536;28;19919;-82
2021/12/18 14:13:09;;;;;;;;;;;8.50;99.90;;;;;;5096289;28;19916;-80
2021/12/18 14:15:34;;;;;;;;;;;8.50;99.90;;;;;;5105381;28;19963;-82
2021/12/18 14:18:00;;;;;;;;;;;8.50;99.90;;;;;;5080323;28;19939;-81
2021/12/18 14:20:26;;;;;;;;;;;8.50;99.90;;;;;;5082266;28;19962;-81
2021/12/18 14:22:53;;;;;;;;;;;8.50;99.90;;;;;;5082005;28;20020;-83
2021/12/18 14:25:19;;;;;;;;;;;8.50;99.90;;;;;;5080216;28;19923;-84
2021/12/18 14:27:46;;;;;;;;;;;8.50;99.90;;;;;;5071351;28;19923;-81
2021/12/18 14:30:14;;;;;;;;;;;8.50;99.90;;;;;;5080478;28;20396;-82
2021/12/18 14:32:40;;;;;;;;;;;8.50;99.90;;;;;;5076891;28;19943;-83
2021/12/18 14:35:07;;;;;;;;;;;8.40;99.90;;;;;;5071641;28;19916;-81
2021/12/18 14:37:45;;;;;;;;;;;8.40;99.90;;;;;;5060076;28;19952;-82
2021/12/18 14:40:15;;;;;;;;;;;8.40;99.90;;;;;;5078816;28;19916;-83
2021/12/18 14:42:48;;;;;;;;;;;8.40;99.90;;;;;;5080357;28;19964;-82
2021/12/18 14:45:21;;;;;;;;;;;8.40;99.90;;;;;;5074611;28;19920;-83
2021/12/18 14:47:50;;;;;;;;;;;8.40;99.90;;;;;;5075928;28;20005;-83
2021/12/18 14:50:19;;;;;;;;;;;8.40;99.90;;;;;;5058316;28;19921;-83
2021/12/18 14:52:54;;;;;;;;;;;8.40;99.90;;;;;;5077372;28;20001;-82
2021/12/18 14:55:24;;;;;;;;;;;8.40;99.90;;;;;;5070993;28;19916;-82
2021/12/18 14:57:50;;;;;;;;;;;8.40;99.90;;;;;;5081177;28;20389;-82
2021/12/18 15:00:35;;;;;;;;;;;8.30;99.90;;;;;;5080971;28;20246;-83
2021/12/18 15:03:12;;;;;;;;;;;8.30;99.90;;;;;;5081938;28;20010;-80
2021/12/18 15:05:46;;;;;;;;;;;8.30;99.90;;;;;;5081009;28;20002;-82
2021/12/18 15:08:16;;;;;;;;;;;8.30;99.90;;;;;;5073109;28;19942;-83
2021/12/18 15:11:05;;;;;;;;;;;8.30;99.90;;;;;;5082800;28;19928;-81
2021/12/18 15:13:34;;;;;;;;;;;8.30;99.90;;;;;;5079385;28;20280;-81
2021/12/18 15:16:08;;;;;;;;;;;8.20;99.90;;;;;;5085633;28;19942;-82
2021/12/18 15:18:35;;;;;;;;;;;8.20;99.90;;;;;;5076813;28;19923;-82
2021/12/18 15:21:01;;;;;;;;;;;8.10;99.90;;;;;;5058050;28;19935;-80
2021/12/18 15:23:27;;;;;;;;;;;8.10;99.90;;;;;;5082690;28;19916;-80
2021/12/18 15:25:53;;;;;;;;;;;8.10;99.90;;;;;;5069390;28;19920;-84
2021/12/18 15:28:19;;;;;;;;;;;8.00;99.90;;;;;;5087124;28;19916;-81